Terminal Aerodrome Forecast
Issued by NWS

Home | Current Version | Previous Version | Text Only | Print | Product List | Glossary On
Versions: 1 2 3 4 5 6 7 8 9 10 11 12 13 14 15 16 17 18 19 20 21 22 23 24 25 26 27 28
000
FTUS46 KOTX 011138
TAFCOE
TAF
KCOE 011138Z 0112/0212 18006KT P6SM VCFG SCT012
     FM011700 20007KT P6SM FEW050 SCT200
     FM012200 20010G16KT P6SM SCT050 BKN150
     FM020200 21005KT P6SM FEW050 BKN150
     FM020600 23004KT P6SM FEW150
      AMD LTD TO CLD AND VIS=

USA.gov is the U.S. government's official web portal to all federal, state and local government web resources and services.